sensor_id;sensor_type;location;lat;lon;timestamp;pressure;altitude;pressure_sealevel;temperature;humidity
33454;BME280;39400;49.744;7.012;2022-09-11T00:01:18;96184.09;;;14.10;100.00
33454;BME280;39400;49.744;7.012;2022-09-11T00:03:45;96176.91;;;14.16;100.00
33454;BME280;39400;49.744;7.012;2022-09-11T00:06:18;96173.81;;;14.11;100.00
33454;BME280;39400;49.744;7.012;2022-09-11T00:08:58;96182.50;;;14.09;100.00
33454;BME280;39400;49.744;7.012;2022-09-11T00:11:32;96172.22;;;14.13;100.00
33454;BME280;39400;49.744;7.012;2022-09-11T00:14:00;96173.78;;;14.14;100.00
33454;BME280;39400;49.744;7.012;2022-09-11T00:16:29;96171.44;;;14.09;100.00
33454;BME280;39400;49.744;7.012;2022-09-11T00:18:58;96174.59;;;14.11;100.00
33454;BME280;39400;49.744;7.012;2022-09-11T00:21:26;96169.16;;;14.04;100.00
33454;BME280;39400;49.744;7.012;2022-09-11T00:23:53;96183.03;;;13.97;100.00
33454;BME280;39400;49.744;7.012;2022-09-11T00:26:20;96179.75;;;14.09;100.00
33454;BME280;39400;49.744;7.012;2022-09-11T00:28:48;96180.78;;;14.22;100.00
33454;BME280;39400;49.744;7.012;2022-09-11T00:31:19;96189.56;;;14.17;100.00
33454;BME280;39400;49.744;7.012;2022-09-11T00:33:46;96187.88;;;14.23;100.00
33454;BME280;39400;49.744;7.012;2022-09-11T00:36:17;96190.28;;;14.21;100.00
33454;BME280;39400;49.744;7.012;2022-09-11T00:38:44;96191.84;;;14.22;100.00
33454;BME280;39400;49.744;7.012;2022-09-11T00:41:17;96195.44;;;14.19;100.00
33454;BME280;39400;49.744;7.012;2022-09-11T00:43:58;96187.25;;;14.09;100.00
33454;BME280;39400;49.744;7.012;2022-09-11T00:46:39;96197.53;;;14.08;100.00
33454;BME280;39400;49.744;7.012;2022-09-11T00:49:27;96195.56;;;14.09;100.00
33454;BME280;39400;49.744;7.012;2022-09-11T00:51:59;96189.34;;;13.97;100.00
33454;BME280;39400;49.744;7.012;2022-09-11T00:54:31;96194.03;;;14.04;100.00
33454;BME280;39400;49.744;7.012;2022-09-11T00:57:03;96193.13;;;14.14;100.00
33454;BME280;39400;49.744;7.012;2022-09-11T00:59:33;96188.84;;;14.06;100.00
33454;BME280;39400;49.744;7.012;2022-09-11T01:02:00;96189.56;;;14.17;100.00
33454;BME280;39400;49.744;7.012;2022-09-11T01:04:28;96182.81;;;14.18;100.00
33454;BME280;39400;49.744;7.012;2022-09-11T01:06:56;96176.19;;;14.09;100.00
33454;BME280;39400;49.744;7.012;2022-09-11T01:09:28;96180.13;;;14.11;100.00
33454;BME280;39400;49.744;7.012;2022-09-11T01:12:06;96179.38;;;14.07;100.00
33454;BME280;39400;49.744;7.012;2022-09-11T01:15:03;96188.47;;;14.08;100.00
33454;BME280;39400;49.744;7.012;2022-09-11T01:23:31;96186.47;;;14.08;100.00
33454;BME280;39400;49.744;7.012;2022-09-11T01:26:26;96186.94;;;14.03;100.00
33454;BME280;39400;49.744;7.012;2022-09-11T01:31:57;96195.97;;;14.07;100.00
33454;BME280;39400;49.744;7.012;2022-09-11T01:34:56;96200.69;;;14.10;100.00
33454;BME280;39400;49.744;7.012;2022-09-11T01:37:47;96186.56;;;14.01;100.00
33454;BME280;39400;49.744;7.012;2022-09-11T01:40:21;96183.38;;;14.02;100.00
33454;BME280;39400;49.744;7.012;2022-09-11T01:42:53;96182.97;;;14.04;100.00
33454;BME280;39400;49.744;7.012;2022-09-11T01:45:23;96181.34;;;14.10;100.00
33454;BME280;39400;49.744;7.012;2022-09-11T01:47:52;96181.19;;;14.24;100.00
33454;BME280;39400;49.744;7.012;2022-09-11T01:50:20;96188.34;;;14.18;100.00
33454;BME280;39400;49.744;7.012;2022-09-11T01:52:55;96191.19;;;14.11;100.00
33454;BME280;39400;49.744;7.012;2022-09-11T01:55:29;96182.63;;;14.36;100.00
33454;BME280;39400;49.744;7.012;2022-09-11T01:58:17;96175.81;;;14.44;100.00
33454;BME280;39400;49.744;7.012;2022-09-11T02:00:52;96182.22;;;14.38;100.00
33454;BME280;39400;49.744;7.012;2022-09-11T02:03:26;96182.09;;;14.48;100.00
33454;BME280;39400;49.744;7.012;2022-09-11T02:06:00;96175.88;;;14.37;100.00
33454;BME280;39400;49.744;7.012;2022-09-11T02:08:47;96186.75;;;14.21;100.00
33454;BME280;39400;49.744;7.012;2022-09-11T02:11:21;96186.59;;;14.35;100.00
33454;BME280;39400;49.744;7.012;2022-09-11T02:13:59;96186.91;;;14.41;100.00
33454;BME280;39400;49.744;7.012;2022-09-11T02:19:14;96185.41;;;14.33;100.00
33454;BME280;39400;49.744;7.012;2022-09-11T02:21:43;96196.53;;;14.29;100.00
33454;BME280;39400;49.744;7.012;2022-09-11T02:24:11;96194.19;;;14.27;100.00
33454;BME280;39400;49.744;7.012;2022-09-11T02:26:41;96195.38;;;14.26;100.00
33454;BME280;39400;49.744;7.012;2022-09-11T02:29:11;96195.28;;;14.34;100.00
33454;BME280;39400;49.744;7.012;2022-09-11T02:31:40;96200.47;;;14.32;100.00
33454;BME280;39400;49.744;7.012;2022-09-11T02:34:09;96198.22;;;14.19;100.00
33454;BME280;39400;49.744;7.012;2022-09-11T02:36:44;96189.56;;;14.17;100.00
33454;BME280;39400;49.744;7.012;2022-09-11T02:42:39;96202.03;;;14.33;100.00
33454;BME280;39400;49.744;7.012;2022-09-11T02:53:30;96190.91;;;14.36;100.00
33454;BME280;39400;49.744;7.012;2022-09-11T02:56:10;96188.09;;;14.40;100.00
33454;BME280;39400;49.744;7.012;2022-09-11T03:01:08;96196.38;;;14.43;100.00
33454;BME280;39400;49.744;7.012;2022-09-11T03:03:38;96186.41;;;14.53;100.00
33454;BME280;39400;49.744;7.012;2022-09-11T03:06:11;96196.19;;;14.61;100.00
33454;BME280;39400;49.744;7.012;2022-09-11T03:08:40;96200.38;;;14.39;100.00
33454;BME280;39400;49.744;7.012;2022-09-11T03:11:07;96213.03;;;14.36;100.00
33454;BME280;39400;49.744;7.012;2022-09-11T03:13:35;96210.72;;;14.35;100.00
33454;BME280;39400;49.744;7.012;2022-09-11T03:16:04;96205.16;;;14.35;100.00
33454;BME280;39400;49.744;7.012;2022-09-11T03:18:31;96206.59;;;14.50;100.00
33454;BME280;39400;49.744;7.012;2022-09-11T03:20:59;96203.41;;;14.55;100.00
33454;BME280;39400;49.744;7.012;2022-09-11T03:23:27;96206.59;;;14.50;100.00
33454;BME280;39400;49.744;7.012;2022-09-11T03:25:54;96212.09;;;14.54;100.00
33454;BME280;39400;49.744;7.012;2022-09-11T03:28:22;96206.47;;;14.61;100.00
33454;BME280;39400;49.744;7.012;2022-09-11T03:30:50;96202.00;;;14.70;100.00
33454;BME280;39400;49.744;7.012;2022-09-11T03:33:18;96205.56;;;14.71;100.00
33454;BME280;39400;49.744;7.012;2022-09-11T03:35:46;96193.50;;;14.54;100.00
33454;BME280;39400;49.744;7.012;2022-09-11T03:38:14;96199.41;;;14.56;100.00
33454;BME280;39400;49.744;7.012;2022-09-11T03:40:42;96202.63;;;14.47;100.00
33454;BME280;39400;49.744;7.012;2022-09-11T03:43:10;96205.34;;;14.55;100.00
33454;BME280;39400;49.744;7.012;2022-09-11T03:45:38;96206.72;;;14.73;100.00
33454;BME280;39400;49.744;7.012;2022-09-11T03:48:07;96202.88;;;14.64;100.00
33454;BME280;39400;49.744;7.012;2022-09-11T03:50:34;96203.84;;;14.50;100.00
33454;BME280;39400;49.744;7.012;2022-09-11T03:53:01;96210.97;;;14.44;100.00
33454;BME280;39400;49.744;7.012;2022-09-11T03:55:29;96218.16;;;14.41;100.00
33454;BME280;39400;49.744;7.012;2022-09-11T03:57:58;96211.38;;;14.46;100.00
33454;BME280;39400;49.744;7.012;2022-09-11T04:00:26;96206.97;;;14.52;100.00
33454;BME280;39400;49.744;7.012;2022-09-11T04:02:55;96213.75;;;14.44;100.00
33454;BME280;39400;49.744;7.012;2022-09-11T04:05:32;96204.34;;;14.38;100.00
33454;BME280;39400;49.744;7.012;2022-09-11T04:08:00;96206.66;;;14.43;100.00
33454;BME280;39400;49.744;7.012;2022-09-11T04:10:28;96208.97;;;14.48;100.00
33454;BME280;39400;49.744;7.012;2022-09-11T04:12:57;96218.47;;;14.47;100.00
33454;BME280;39400;49.744;7.012;2022-09-11T04:15:24;96216.84;;;14.49;100.00
33454;BME280;39400;49.744;7.012;2022-09-11T04:17:51;96217.00;;;14.35;100.00
33454;BME280;39400;49.744;7.012;2022-09-11T04:20:21;96219.44;;;14.30;100.00
33454;BME280;39400;49.744;7.012;2022-09-11T04:22:48;96227.00;;;14.25;100.00
33454;BME280;39400;49.744;7.012;2022-09-11T04:25:15;96225.66;;;14.37;100.00
33454;BME280;39400;49.744;7.012;2022-09-11T04:27:43;96226.84;;;14.40;100.00
33454;BME280;39400;49.744;7.012;2022-09-11T04:30:14;96221.69;;;14.42;100.00
33454;BME280;39400;49.744;7.012;2022-09-11T04:32:41;96228.88;;;14.36;100.00
33454;BME280;39400;49.744;7.012;2022-09-11T04:35:09;96225.81;;;14.23;100.00
33454;BME280;39400;49.744;7.012;2022-09-11T04:37:45;96225.94;;;14.12;100.00
33454;BME280;39400;49.744;7.012;2022-09-11T04:40:12;96230.97;;;14.24;100.00
33454;BME280;39400;49.744;7.012;2022-09-11T04:42:39;96231.16;;;14.44;100.00
33454;BME280;39400;49.744;7.012;2022-09-11T04:45:07;96228.47;;;14.34;100.00
33454;BME280;39400;49.744;7.012;2022-09-11T04:47:35;96229.00;;;14.21;100.00
33454;BME280;39400;49.744;7.012;2022-09-11T04:50:02;96239.34;;;14.17;100.00
33454;BME280;39400;49.744;7.012;2022-09-11T04:52:31;96238.56;;;14.17;100.00
33454;BME280;39400;49.744;7.012;2022-09-11T04:55:00;96242.50;;;14.16;100.00
33454;BME280;39400;49.744;7.012;2022-09-11T04:57:28;96244.13;;;14.10;100.00
33454;BME280;39400;49.744;7.012;2022-09-11T04:59:56;96252.41;;;14.10;100.00
33454;BME280;39400;49.744;7.012;2022-09-11T05:02:24;96255.34;;;13.92;100.00
33454;BME280;39400;49.744;7.012;2022-09-11T05:04:53;96266.41;;;13.92;100.00
33454;BME280;39400;49.744;7.012;2022-09-11T05:07:20;96262.72;;;14.06;100.00
33454;BME280;39400;49.744;7.012;2022-09-11T05:09:50;96259.94;;;14.09;100.00
33454;BME280;39400;49.744;7.012;2022-09-11T05:12:20;96267.72;;;14.21;100.00
33454;BME280;39400;49.744;7.012;2022-09-11T05:14:48;96272.59;;;14.10;100.00
33454;BME280;39400;49.744;7.012;2022-09-11T05:17:15;96276.56;;;14.06;100.00
33454;BME280;39400;49.744;7.012;2022-09-11T05:19:43;96278.28;;;13.89;100.00
33454;BME280;39400;49.744;7.012;2022-09-11T05:22:10;96280.47;;;14.12;100.00
33454;BME280;39400;49.744;7.012;2022-09-11T05:24:42;96273.47;;;14.00;100.00
33454;BME280;39400;49.744;7.012;2022-09-11T05:27:09;96279.88;;;13.90;100.00
33454;BME280;39400;49.744;7.012;2022-09-11T05:29:37;96283.81;;;13.89;100.00
33454;BME280;39400;49.744;7.012;2022-09-11T05:32:10;96288.63;;;13.77;100.00
33454;BME280;39400;49.744;7.012;2022-09-11T05:34:40;96287.09;;;13.73;100.00
33454;BME280;39400;49.744;7.012;2022-09-11T05:37:09;96284.59;;;13.93;100.00
33454;BME280;39400;49.744;7.012;2022-09-11T05:39:42;96275.56;;;13.82;100.00
33454;BME280;39400;49.744;7.012;2022-09-11T05:42:11;96287.78;;;13.84;100.00
33454;BME280;39400;49.744;7.012;2022-09-11T05:44:42;96295.25;;;13.91;100.00
33454;BME280;39400;49.744;7.012;2022-09-11T05:47:09;96292.47;;;13.91;100.00
33454;BME280;39400;49.744;7.012;2022-09-11T05:49:37;96288.09;;;13.97;100.00
33454;BME280;39400;49.744;7.012;2022-09-11T05:52:04;96283.31;;;14.01;100.00
33454;BME280;39400;49.744;7.012;2022-09-11T05:54:34;96283.25;;;14.08;100.00
33454;BME280;39400;49.744;7.012;2022-09-11T05:57:03;96289.19;;;14.10;100.00
33454;BME280;39400;49.744;7.012;2022-09-11T05:59:35;96285.88;;;14.22;100.00
33454;BME280;39400;49.744;7.012;2022-09-11T06:02:03;96284.97;;;14.36;100.00
33454;BME280;39400;49.744;7.012;2022-09-11T06:04:38;96288.44;;;14.44;100.00
33454;BME280;39400;49.744;7.012;2022-09-11T06:07:06;96295.56;;;14.45;100.00
33454;BME280;39400;49.744;7.012;2022-09-11T06:09:34;96299.41;;;14.58;100.00
33454;BME280;39400;49.744;7.012;2022-09-11T06:12:02;96291.78;;;14.69;100.00
33454;BME280;39400;49.744;7.012;2022-09-11T06:14:29;96297.59;;;14.79;100.00
33454;BME280;39400;49.744;7.012;2022-09-11T06:16:56;96299.63;;;14.74;100.00
33454;BME280;39400;49.744;7.012;2022-09-11T06:19:25;96304.81;;;14.72;100.00
33454;BME280;39400;49.744;7.012;2022-09-11T06:21:52;96316.38;;;14.60;100.00
33454;BME280;39400;49.744;7.012;2022-09-11T06:24:27;96322.09;;;14.39;100.00
33454;BME280;39400;49.744;7.012;2022-09-11T06:26:55;96321.22;;;14.53;100.00
33454;BME280;39400;49.744;7.012;2022-09-11T06:29:24;96327.63;;;14.39;100.00
33454;BME280;39400;49.744;7.012;2022-09-11T06:31:53;96323.28;;;14.41;100.00
33454;BME280;39400;49.744;7.012;2022-09-11T06:34:23;96322.75;;;14.57;100.00
33454;BME280;39400;49.744;7.012;2022-09-11T06:36:50;96318.91;;;14.82;100.00
33454;BME280;39400;49.744;7.012;2022-09-11T06:39:20;96323.94;;;14.56;100.00
33454;BME280;39400;49.744;7.012;2022-09-11T06:41:49;96312.91;;;14.49;100.00
33454;BME280;39400;49.744;7.012;2022-09-11T06:44:18;96325.25;;;14.37;100.00
33454;BME280;39400;49.744;7.012;2022-09-11T06:46:45;96342.94;;;14.54;100.00
33454;BME280;39400;49.744;7.012;2022-09-11T06:49:13;96336.66;;;14.50;100.00
33454;BME280;39400;49.744;7.012;2022-09-11T06:51:59;96346.59;;;14.37;100.00
33454;BME280;39400;49.744;7.012;2022-09-11T06:54:27;96345.84;;;14.36;100.00
33454;BME280;39400;49.744;7.012;2022-09-11T06:56:56;96340.94;;;14.58;100.00
33454;BME280;39400;49.744;7.012;2022-09-11T06:59:23;96356.50;;;14.38;100.00
33454;BME280;39400;49.744;7.012;2022-09-11T07:01:51;96351.47;;;14.25;100.00
33454;BME280;39400;49.744;7.012;2022-09-11T07:04:20;96363.34;;;14.22;100.00
33454;BME280;39400;49.744;7.012;2022-09-11T07:06:49;96369.13;;;13.87;100.00
33454;BME280;39400;49.744;7.012;2022-09-11T07:09:16;96371.09;;;13.90;100.00
33454;BME280;39400;49.744;7.012;2022-09-11T07:11:50;96375.75;;;14.00;100.00
33454;BME280;39400;49.744;7.012;2022-09-11T07:14:19;96360.69;;;14.08;100.00
33454;BME280;39400;49.744;7.012;2022-09-11T07:16:53;96358.38;;;14.03;100.00
33454;BME280;39400;49.744;7.012;2022-09-11T07:19:21;96363.06;;;14.06;100.00
33454;BME280;39400;49.744;7.012;2022-09-11T07:21:51;96358.53;;;14.30;100.00
33454;BME280;39400;49.744;7.012;2022-09-11T07:24:20;96362.97;;;14.20;100.00
33454;BME280;39400;49.744;7.012;2022-09-11T07:26:48;96358.88;;;14.36;100.00
33454;BME280;39400;49.744;7.012;2022-09-11T07:29:21;96361.59;;;14.43;100.00
33454;BME280;39400;49.744;7.012;2022-09-11T07:31:50;96357.63;;;14.44;100.00
33454;BME280;39400;49.744;7.012;2022-09-11T07:34:18;96352.56;;;14.80;100.00
33454;BME280;39400;49.744;7.012;2022-09-11T07:36:45;96370.06;;;14.70;100.00
33454;BME280;39400;49.744;7.012;2022-09-11T07:39:13;96367.69;;;14.68;100.00
33454;BME280;39400;49.744;7.012;2022-09-11T07:41:50;96371.72;;;14.60;100.00
33454;BME280;39400;49.744;7.012;2022-09-11T07:44:23;96377.34;;;14.53;100.00
33454;BME280;39400;49.744;7.012;2022-09-11T07:46:50;96364.78;;;14.41;100.00
33454;BME280;39400;49.744;7.012;2022-09-11T07:49:18;96369.47;;;14.48;100.00
33454;BME280;39400;49.744;7.012;2022-09-11T07:51:46;96371.72;;;14.60;100.00
33454;BME280;39400;49.744;7.012;2022-09-11T07:54:19;96364.25;;;14.95;100.00
33454;BME280;39400;49.744;7.012;2022-09-11T07:56:47;96375.31;;;14.98;100.00
33454;BME280;39400;49.744;7.012;2022-09-11T07:59:14;96370.75;;;15.15;100.00
33454;BME280;39400;49.744;7.012;2022-09-11T08:01:45;96360.81;;;15.52;100.00
33454;BME280;39400;49.744;7.012;2022-09-11T08:04:13;96364.28;;;15.60;100.00
33454;BME280;39400;49.744;7.012;2022-09-11T08:06:42;96360.97;;;15.72;100.00
33454;BME280;39400;49.744;7.012;2022-09-11T08:09:15;96351.06;;;15.40;100.00
33454;BME280;39400;49.744;7.012;2022-09-11T08:11:48;96348.53;;;15.53;100.00
33454;BME280;39400;49.744;7.012;2022-09-11T08:14:17;96344.19;;;15.52;100.00
33454;BME280;39400;49.744;7.012;2022-09-11T08:16:47;96350.00;;;15.61;100.00
33454;BME280;39400;49.744;7.012;2022-09-11T08:19:18;96343.38;;;15.82;100.00
33454;BME280;39400;49.744;7.012;2022-09-11T08:21:50;96342.81;;;15.67;100.00
33454;BME280;39400;49.744;7.012;2022-09-11T08:24:18;96347.94;;;15.96;100.00
33454;BME280;39400;49.744;7.012;2022-09-11T08:26:54;96351.97;;;15.91;100.00
33454;BME280;39400;49.744;7.012;2022-09-11T08:29:24;96339.09;;;16.05;100.00
33454;BME280;39400;49.744;7.012;2022-09-11T08:31:52;96337.63;;;15.97;100.00
33454;BME280;39400;49.744;7.012;2022-09-11T08:34:20;96351.75;;;16.06;100.00
33454;BME280;39400;49.744;7.012;2022-09-11T08:36:48;96349.09;;;15.72;100.00
33454;BME280;39400;49.744;7.012;2022-09-11T08:39:17;96347.22;;;15.92;100.00
33454;BME280;39400;49.744;7.012;2022-09-11T08:41:54;96355.34;;;16.30;100.00
33454;BME280;39400;49.744;7.012;2022-09-11T08:44:29;96349.41;;;16.04;100.00
33454;BME280;39400;49.744;7.012;2022-09-11T08:47:21;96355.31;;;16.06;100.00
33454;BME280;39400;49.744;7.012;2022-09-11T08:49:57;96359.75;;;16.00;100.00
33454;BME280;39400;49.744;7.012;2022-09-11T08:52:28;96355.22;;;16.37;100.00
33454;BME280;39400;49.744;7.012;2022-09-11T08:54:57;96353.44;;;16.50;100.00
33454;BME280;39400;49.744;7.012;2022-09-11T08:57:35;96359.75;;;16.51;100.00
33454;BME280;39400;49.744;7.012;2022-09-11T09:00:20;96352.94;;;16.32;100.00
33454;BME280;39400;49.744;7.012;2022-09-11T09:03:21;96350.22;;;16.28;100.00
33454;BME280;39400;49.744;7.012;2022-09-11T09:08:44;96354.63;;;16.26;100.00
33454;BME280;39400;49.744;7.012;2022-09-11T09:14:28;96362.41;;;16.34;100.00
33454;BME280;39400;49.744;7.012;2022-09-11T09:17:05;96359.09;;;16.90;100.00
33454;BME280;39400;49.744;7.012;2022-09-11T09:19:43;96358.22;;;16.93;100.00
33454;BME280;39400;49.744;7.012;2022-09-11T09:22:29;96372.75;;;16.81;100.00
33454;BME280;39400;49.744;7.012;2022-09-11T09:25:05;96361.75;;;16.74;100.00
33454;BME280;39400;49.744;7.012;2022-09-11T09:27:40;96357.03;;;16.71;100.00
33454;BME280;39400;49.744;7.012;2022-09-11T09:30:16;96359.44;;;16.69;100.00
33454;BME280;39400;49.744;7.012;2022-09-11T09:35:23;96357.75;;;16.98;100.00
33454;BME280;39400;49.744;7.012;2022-09-11T09:37:53;96353.78;;;16.76;100.00
33454;BME280;39400;49.744;7.012;2022-09-11T09:40:22;96368.34;;;16.60;100.00
33454;BME280;39400;49.744;7.012;2022-09-11T09:43:03;96363.06;;;16.89;100.00
33454;BME280;39400;49.744;7.012;2022-09-11T09:45:44;96363.03;;;16.46;100.00
33454;BME280;39400;49.744;7.012;2022-09-11T09:48:14;96378.38;;;16.27;100.00
33454;BME280;39400;49.744;7.012;2022-09-11T09:50:42;96372.06;;;16.73;100.00
33454;BME280;39400;49.744;7.012;2022-09-11T09:53:14;96374.75;;;16.80;100.00
33454;BME280;39400;49.744;7.012;2022-09-11T09:55:43;96373.53;;;16.81;100.00
33454;BME280;39400;49.744;7.012;2022-09-11T09:58:13;96372.34;;;17.02;100.00
33454;BME280;39400;49.744;7.012;2022-09-11T10:00:41;96368.63;;;16.89;100.00
33454;BME280;39400;49.744;7.012;2022-09-11T10:03:22;96376.91;;;17.52;100.00
33454;BME280;39400;49.744;7.012;2022-09-11T10:05:52;96375.78;;;17.30;100.00
33454;BME280;39400;49.744;7.012;2022-09-11T10:10:56;96373.81;;;17.50;100.00
33454;BME280;39400;49.744;7.012;2022-09-11T10:13:33;96367.31;;;17.77;100.00
33454;BME280;39400;49.744;7.012;2022-09-11T10:16:02;96368.31;;;18.03;100.00
33454;BME280;39400;49.744;7.012;2022-09-11T10:18:40;96364.53;;;17.57;100.00
33454;BME280;39400;49.744;7.012;2022-09-11T10:24:01;96372.72;;;17.44;100.00
33454;BME280;39400;49.744;7.012;2022-09-11T10:26:42;96373.09;;;17.26;100.00
33454;BME280;39400;49.744;7.012;2022-09-11T10:29:15;96370.09;;;17.37;100.00
33454;BME280;39400;49.744;7.012;2022-09-11T10:31:48;96369.78;;;17.31;100.00
33454;BME280;39400;49.744;7.012;2022-09-11T10:34:18;96374.25;;;17.29;100.00
33454;BME280;39400;49.744;7.012;2022-09-11T10:36:57;96369.47;;;17.49;100.00
33454;BME280;39400;49.744;7.012;2022-09-11T10:39:30;96378.50;;;17.53;100.00
33454;BME280;39400;49.744;7.012;2022-09-11T10:42:15;96372.09;;;17.56;100.00
33454;BME280;39400;49.744;7.012;2022-09-11T10:44:45;96368.59;;;17.13;100.00
33454;BME280;39400;49.744;7.012;2022-09-11T10:47:22;96376.22;;;17.48;100.00
33454;BME280;39400;49.744;7.012;2022-09-11T10:53:13;96380.47;;;17.93;100.00
33454;BME280;39400;49.744;7.012;2022-09-11T10:55:49;96378.44;;;17.77;100.00
33454;BME280;39400;49.744;7.012;2022-09-11T10:58:21;96370.97;;;17.90;100.00
33454;BME280;39400;49.744;7.012;2022-09-11T11:00:50;96364.31;;;18.69;100.00
33454;BME280;39400;49.744;7.012;2022-09-11T11:03:20;96365.94;;;18.99;100.00
33454;BME280;39400;49.744;7.012;2022-09-11T11:25:41;96383.84;;;18.00;100.00
33454;BME280;39400;49.744;7.012;2022-09-11T11:34:15;96385.50;;;18.50;100.00
33454;BME280;39400;49.744;7.012;2022-09-11T11:39:30;96372.25;;;18.54;100.00
33454;BME280;39400;49.744;7.012;2022-09-11T11:47:05;96385.44;;;18.01;100.00
33454;BME280;39400;49.744;7.012;2022-09-11T11:55:24;96392.78;;;18.61;100.00
33454;BME280;39400;49.744;7.012;2022-09-11T12:01:03;96378.88;;;18.61;100.00
33454;BME280;39400;49.744;7.012;2022-09-11T12:03:40;96386.78;;;18.46;100.00
33454;BME280;39400;49.744;7.012;2022-09-11T12:06:09;96371.38;;;18.58;100.00
33454;BME280;39400;49.744;7.012;2022-09-11T12:08:43;96377.31;;;18.43;100.00
33454;BME280;39400;49.744;7.012;2022-09-11T12:11:13;96366.50;;;18.62;100.00
33454;BME280;39400;49.744;7.012;2022-09-11T12:13:44;96364.75;;;18.84;100.00
33454;BME280;39400;49.744;7.012;2022-09-11T12:16:25;96359.69;;;18.95;100.00
33454;BME280;39400;49.744;7.012;2022-09-11T12:21:37;96358.72;;;19.02;100.00
33454;BME280;39400;49.744;7.012;2022-09-11T12:26:32;96359.63;;;18.83;100.00
33454;BME280;39400;49.744;7.012;2022-09-11T12:37:21;96351.44;;;18.92;100.00
33454;BME280;39400;49.744;7.012;2022-09-11T12:42:57;96347.19;;;19.29;94.37
33454;BME280;39400;49.744;7.012;2022-09-11T12:45:36;96350.53;;;19.24;91.08
33454;BME280;39400;49.744;7.012;2022-09-11T12:48:13;96346.63;;;18.92;90.92
33454;BME280;39400;49.744;7.012;2022-09-11T12:50:48;96348.88;;;18.97;90.97
33454;BME280;39400;49.744;7.012;2022-09-11T12:53:21;96337.47;;;19.21;90.00
33454;BME280;39400;49.744;7.012;2022-09-11T12:55:59;96344.00;;;19.31;88.06
33454;BME280;39400;49.744;7.012;2022-09-11T12:58:39;96328.03;;;19.31;86.47
33454;BME280;39400;49.744;7.012;2022-09-11T13:01:12;96329.09;;;19.50;86.37
33454;BME280;39400;49.744;7.012;2022-09-11T13:03:51;96325.47;;;19.66;83.64
33454;BME280;39400;49.744;7.012;2022-09-11T13:06:23;96319.13;;;19.78;83.00
33454;BME280;39400;49.744;7.012;2022-09-11T13:08:59;96320.91;;;20.23;86.77
33454;BME280;39400;49.744;7.012;2022-09-11T13:11:48;96318.41;;;20.25;83.67
33454;BME280;39400;49.744;7.012;2022-09-11T13:16:56;96321.41;;;20.91;82.11
33454;BME280;39400;49.744;7.012;2022-09-11T13:19:31;96313.88;;;21.01;80.99
33454;BME280;39400;49.744;7.012;2022-09-11T13:22:00;96309.81;;;21.36;83.30
33454;BME280;39400;49.744;7.012;2022-09-11T13:24:33;96306.94;;;21.05;80.47
33454;BME280;39400;49.744;7.012;2022-09-11T13:27:12;96309.59;;;21.31;78.24
33454;BME280;39400;49.744;7.012;2022-09-11T13:29:45;96309.25;;;21.42;79.41
33454;BME280;39400;49.744;7.012;2022-09-11T13:32:15;96302.09;;;20.84;79.38
33454;BME280;39400;49.744;7.012;2022-09-11T13:34:49;96297.38;;;20.59;80.58
33454;BME280;39400;49.744;7.012;2022-09-11T13:37:37;96300.25;;;21.03;80.39
33454;BME280;39400;49.744;7.012;2022-09-11T13:40:06;96292.50;;;21.07;77.37
33454;BME280;39400;49.744;7.012;2022-09-11T13:42:41;96297.63;;;21.08;77.26
33454;BME280;39400;49.744;7.012;2022-09-11T13:45:15;96298.75;;;21.55;80.41
33454;BME280;39400;49.744;7.012;2022-09-11T13:47:43;96293.28;;;21.07;78.14
33454;BME280;39400;49.744;7.012;2022-09-11T13:50:13;96286.00;;;21.10;76.10
33454;BME280;39400;49.744;7.012;2022-09-11T13:52:42;96286.84;;;20.98;76.91
33454;BME280;39400;49.744;7.012;2022-09-11T13:55:15;96283.31;;;21.28;75.56
33454;BME280;39400;49.744;7.012;2022-09-11T13:58:28;96281.88;;;21.02;74.82
33454;BME280;39400;49.744;7.012;2022-09-11T14:01:11;96271.34;;;20.62;73.96
33454;BME280;39400;49.744;7.012;2022-09-11T14:03:45;96266.97;;;20.96;74.33
33454;BME280;39400;49.744;7.012;2022-09-11T14:06:15;96270.06;;;21.42;73.01
33454;BME280;39400;49.744;7.012;2022-09-11T14:08:51;96269.25;;;21.63;71.52
33454;BME280;39400;49.744;7.012;2022-09-11T14:11:28;96258.13;;;21.81;74.44
33454;BME280;39400;49.744;7.012;2022-09-11T14:14:04;96261.09;;;21.87;71.56
33454;BME280;39400;49.744;7.012;2022-09-11T14:16:34;96252.13;;;26.65;58.81
33454;BME280;39400;49.744;7.012;2022-09-11T14:19:18;96252.41;;;34.21;35.43
33454;BME280;39400;49.744;7.012;2022-09-11T14:21:48;96256.63;;;36.36;30.73
33454;BME280;39400;49.744;7.012;2022-09-11T14:29:58;96246.97;;;38.38;26.09
33454;BME280;39400;49.744;7.012;2022-09-11T14:32:38;96258.34;;;40.71;23.30
33454;BME280;39400;49.744;7.012;2022-09-11T14:35:08;96254.19;;;42.88;21.50
33454;BME280;39400;49.744;7.012;2022-09-11T14:37:40;96245.47;;;41.06;22.11
33454;BME280;39400;49.744;7.012;2022-09-11T14:40:16;96244.19;;;39.50;22.87
33454;BME280;39400;49.744;7.012;2022-09-11T14:42:45;96249.94;;;40.82;23.01
33454;BME280;39400;49.744;7.012;2022-09-11T14:45:22;96235.44;;;37.41;24.10
33454;BME280;39400;49.744;7.012;2022-09-11T14:47:51;96235.72;;;39.11;23.38
33454;BME280;39400;49.744;7.012;2022-09-11T14:50:19;96245.00;;;34.71;27.12
33454;BME280;39400;49.744;7.012;2022-09-11T14:52:46;96231.00;;;35.68;26.09
33454;BME280;39400;49.744;7.012;2022-09-11T14:55:16;96229.28;;;38.03;24.12
33454;BME280;39400;49.744;7.012;2022-09-11T14:57:43;96218.94;;;38.69;24.54
33454;BME280;39400;49.744;7.012;2022-09-11T15:00:14;96225.69;;;38.18;23.46
33454;BME280;39400;49.744;7.012;2022-09-11T15:02:41;96215.69;;;39.94;22.54
33454;BME280;39400;49.744;7.012;2022-09-11T15:05:13;96215.78;;;28.03;35.33
33454;BME280;39400;49.744;7.012;2022-09-11T15:07:42;96219.19;;;26.76;40.36